Time;durP1;ratioP1;P1;durP2;ratioP2;P2;SDS_P1;SDS_P2;PMS_P1;PMS_P2;Temp;Humidity;BMP_temperature;BMP_pressure;BME280_temperature;BME280_humidity;BME280_pressure;Samples;Min_cycle;Max_cycle;Signal;HPM_P1;HPM_P2
2022/02/14 00:00:02;;;;;;;0.40;0.30;;;;;;;5.59;77.26;100432.44;5016981;28;20853;-75
2022/02/14 00:02:29;;;;;;;0.50;0.50;;;;;;;5.61;78.00;100424.09;5016784;28;20503;-75
2022/02/14 00:04:56;;;;;;;0.40;0.30;;;;;;;5.56;78.54;100416.88;5016684;28;21032;-73
2022/02/14 00:07:22;;;;;;;0.40;0.30;;;;;;;5.63;78.14;100417.41;5016675;28;20937;-73
2022/02/14 00:09:50;;;;;;;0.40;0.30;;;;;;;5.60;78.07;100409.06;5016838;28;20440;-74
2022/02/14 00:12:16;;;;;;;0.40;0.20;;;;;;;5.62;78.83;100409.59;5016642;28;20468;-74
2022/02/14 00:14:43;;;;;;;0.40;0.20;;;;;;;5.65;77.94;100407.16;5016511;28;20440;-75
2022/02/14 00:17:09;;;;;;;0.40;0.20;;;;;;;5.67;78.00;100414.97;5016707;28;20439;-75
2022/02/14 00:19:35;;;;;;;0.40;0.20;;;;;;;5.72;77.45;100405.00;5016586;28;20452;-75
2022/02/14 00:22:02;;;;;;;0.40;0.33;;;;;;;5.75;77.50;100412.50;5016504;28;20879;-75
2022/02/14 00:24:29;;;;;;;0.40;0.30;;;;;;;5.77;77.26;100404.19;5016434;28;20494;-75
2022/02/14 00:26:56;;;;;;;0.40;0.30;;;;;;;5.79;77.86;100413.56;5016512;28;20452;-75
2022/02/14 00:29:23;;;;;;;0.40;0.30;;;;;;;5.80;76.93;100391.03;5016091;28;20941;-75
2022/02/14 00:31:50;;;;;;;0.40;0.30;;;;;;;5.88;76.10;100399.59;5016537;28;20499;-75
2022/02/14 00:34:17;;;;;;;0.40;0.20;;;;;;;5.92;76.13;100397.97;5015996;28;20946;-75
2022/02/14 00:36:44;;;;;;;0.40;0.30;;;;;;;5.92;76.36;100387.22;5016441;28;20853;-75
2022/02/14 00:39:11;;;;;;;0.40;0.30;;;;;;;5.94;76.26;100401.22;5015835;28;20451;-74
2022/02/14 00:41:37;;;;;;;0.40;0.30;;;;;;;5.88;76.03;100386.13;5016120;28;20843;-75
2022/02/14 00:44:06;;;;;;;0.40;0.30;;;;;;;5.87;75.72;100379.97;5016085;28;20499;-75
2022/02/14 00:46:32;;;;;;;0.40;0.20;;;;;;;5.92;75.67;100384.53;5016088;28;20498;-74
2022/02/14 00:48:58;;;;;;;0.40;0.30;;;;;;;5.94;75.27;100385.91;5016109;28;20448;-75
2022/02/14 00:51:25;;;;;;;2.63;2.53;;;;;;;5.89;75.71;100380.50;5015633;28;20941;-75
2022/02/14 00:53:51;;;;;;;0.40;0.20;;;;;;;5.95;74.93;100381.31;5015978;28;20452;-75
2022/02/14 00:56:18;;;;;;;0.40;0.30;;;;;;;5.94;75.25;100380.50;5015972;28;20448;-75
2022/02/14 00:58:44;;;;;;;0.40;0.30;;;;;;;5.90;74.43;100375.94;5015901;28;20786;-74
2022/02/14 01:01:12;;;;;;;0.40;0.27;;;;;;;5.96;74.50;100366.78;5015876;28;20451;-74
2022/02/14 01:03:38;;;;;;;0.40;0.23;;;;;;;5.98;74.67;100365.44;5015618;28;20487;-73
2022/02/14 01:06:05;;;;;;;0.50;0.30;;;;;;;6.03;73.45;100362.72;5015775;28;20480;-74
2022/02/14 01:08:31;;;;;;;0.40;0.30;;;;;;;6.08;74.20;100364.59;5015730;28;20444;-74
2022/02/14 01:10:58;;;;;;;0.50;0.47;;;;;;;6.00;73.25;100349.84;5015702;28;20502;-74
2022/02/14 01:13:24;;;;;;;0.40;0.30;;;;;;;6.11;73.19;100357.84;5015499;28;20464;-74
2022/02/14 01:15:50;;;;;;;0.40;0.30;;;;;;;6.12;73.71;100354.91;5015232;28;20913;-74
2022/02/14 01:18:18;;;;;;;0.40;0.20;;;;;;;6.16;72.38;100349.78;5015507;28;20440;-74
2022/02/14 01:20:45;;;;;;;0.40;0.30;;;;;;;6.23;72.11;100355.63;5015427;28;20455;-74
2022/02/14 01:23:11;;;;;;;0.40;0.30;;;;;;;6.19;72.46;100349.19;5015270;28;20494;-74
2022/02/14 01:25:38;;;;;;;17.80;13.13;;;;;;;6.23;71.83;100351.06;5015358;28;20444;-74
2022/02/14 01:28:04;;;;;;;0.40;0.20;;;;;;;6.27;71.87;100351.31;5015373;28;20440;-74
2022/02/14 01:30:31;;;;;;;0.40;0.20;;;;;;;6.26;71.11;100355.88;5015011;28;20945;-74
2022/02/14 01:33:00;;;;;;;0.40;0.20;;;;;;;6.24;71.99;100347.31;5014907;28;20463;-74
2022/02/14 01:35:28;;;;;;;0.40;0.30;;;;;;;6.23;70.95;100345.69;5015177;28;20451;-74
2022/02/14 01:37:54;;;;;;;0.40;0.20;;;;;;;6.27;69.86;100346.72;5015166;28;20444;-74
2022/02/14 01:40:21;;;;;;;0.40;0.30;;;;;;;6.30;70.52;100348.88;5015116;28;20452;-74
2022/02/14 01:42:47;;;;;;;0.40;0.30;;;;;;;6.30;70.09;100338.13;5014948;28;20464;-74
2022/02/14 01:45:14;;;;;;;0.40;0.30;;;;;;;6.28;70.22;100340.25;5015035;28;20448;-75
2022/02/14 01:47:41;;;;;;;0.40;0.20;;;;;;;6.27;70.57;100333.28;5014639;28;20938;-74
2022/02/14 01:50:10;;;;;;;2.13;2.00;;;;;;;6.29;70.72;100328.44;5014167;28;20444;-74
2022/02/14 01:52:38;;;;;;;0.40;0.30;;;;;;;6.20;70.47;100324.75;5016029;28;20842;-74
2022/02/14 01:55:06;;;;;;;0.40;0.30;;;;;;;6.24;69.63;100314.19;5014894;28;20444;-75
2022/02/14 01:57:35;;;;;;;0.40;0.27;;;;;;;6.20;69.73;100311.28;5014868;28;20444;-73
2022/02/14 02:00:01;;;;;;;0.40;0.30;;;;;;;6.20;69.86;100308.59;5014814;28;20472;-74
2022/02/14 02:02:28;;;;;;;0.40;0.20;;;;;;;6.19;68.92;100312.34;5014583;28;20468;-74
2022/02/14 02:04:54;;;;;;;0.40;0.30;;;;;;;6.21;69.06;100299.44;5014541;28;20480;-74
2022/02/14 02:07:21;;;;;;;0.40;0.30;;;;;;;6.15;69.27;100295.16;5014301;28;20829;-74
2022/02/14 02:09:49;;;;;;;0.40;0.30;;;;;;;6.13;69.02;100291.97;5014617;28;20440;-74
2022/02/14 02:12:25;;;;;;;0.40;0.30;;;;;;;6.21;67.96;100277.94;5014502;28;20464;-75
2022/02/14 02:14:52;;;;;;;0.40;0.20;;;;;;;6.28;67.65;100281.09;5014353;28;20835;-74
2022/02/14 02:17:18;;;;;;;0.40;0.30;;;;;;;6.22;67.69;100274.16;5014445;28;20432;-74
2022/02/14 02:19:45;;;;;;;0.40;0.23;;;;;;;6.21;68.22;100272.56;5014408;28;20443;-74
2022/02/14 02:22:11;;;;;;;0.40;0.20;;;;;;;6.17;68.21;100273.38;5014270;28;20518;-72
2022/02/14 02:24:50;;;;;;;0.40;0.30;;;;;;;6.18;67.95;100267.72;5014190;28;20487;-74
2022/02/14 02:27:17;;;;;;;0.40;0.30;;;;;;;6.18;67.79;100265.03;5014394;28;20444;-75
2022/02/14 02:29:44;;;;;;;0.40;0.20;;;;;;;6.19;67.60;100266.63;5013896;28;20951;-75
2022/02/14 02:32:13;;;;;;;0.40;0.30;;;;;;;6.22;67.45;100271.47;5013821;28;20969;-74
2022/02/14 02:34:41;;;;;;;0.40;0.30;;;;;;;6.18;66.82;100267.72;5013810;28;20440;-74
2022/02/14 02:37:09;;;;;;;0.40;0.30;;;;;;;6.19;66.78;100258.56;5014134;28;20467;-74
2022/02/14 02:39:37;;;;;;;0.40;0.20;;;;;;;6.19;67.33;100255.88;5014047;28;20444;-74
2022/02/14 02:42:07;;;;;;;0.40;0.30;;;;;;;6.13;67.81;100254.31;5013972;28;20460;-74
2022/02/14 02:44:35;;;;;;;0.40;0.30;;;;;;;6.13;67.47;100257.00;5013883;28;20475;-74
2022/02/14 02:47:04;;;;;;;0.40;0.30;;;;;;;6.10;67.59;100254.06;5013935;28;20452;-73
2022/02/14 02:49:31;;;;;;;0.40;0.30;;;;;;;6.12;67.29;100252.72;5013591;28;20954;-77
2022/02/14 02:51:58;;;;;;;0.40;0.30;;;;;;;6.08;67.94;100246.28;5013888;28;20870;-75
2022/02/14 02:54:25;;;;;;;0.40;0.20;;;;;;;6.06;67.15;100243.88;5014006;28;20444;-72
2022/02/14 02:56:54;;;;;;;0.40;0.30;;;;;;;6.01;67.51;100226.97;5013791;28;20443;-73
2022/02/14 02:59:23;;;;;;;0.40;0.30;;;;;;;5.94;67.45;100226.50;5013710;28;20450;-74
2022/02/14 03:01:50;;;;;;;0.40;0.20;;;;;;;5.89;68.10;100218.41;5013505;28;20522;-74
2022/02/14 03:04:17;;;;;;;0.40;0.30;;;;;;;5.87;68.28;100223.28;5013597;28;20549;-74
2022/02/14 03:06:44;;;;;;;0.93;0.93;;;;;;;5.89;67.70;100213.03;5013589;28;20450;-74
2022/02/14 03:09:12;;;;;;;0.40;0.30;;;;;;;5.92;66.77;100216.00;5013891;28;20480;-74
2022/02/14 03:11:40;;;;;;;3.17;2.87;;;;;;;5.94;67.34;100216.53;5013540;28;20448;-74
2022/02/14 03:14:07;;;;;;;0.40;0.30;;;;;;;5.83;67.71;100212.28;5013563;28;20444;-74
2022/02/14 03:16:35;;;;;;;0.40;0.30;;;;;;;5.86;66.74;100211.72;5013358;28;20460;-74
2022/02/14 03:19:02;;;;;;;0.40;0.20;;;;;;;5.89;66.29;100205.81;5013208;28;20941;-74
2022/02/14 03:21:28;;;;;;;0.40;0.30;;;;;;;5.90;66.50;100201.22;5013423;28;20448;-74
2022/02/14 03:23:55;;;;;;;0.40;0.20;;;;;;;5.88;67.05;100198.00;5013359;28;20550;-74
2022/02/14 03:26:22;;;;;;;0.40;0.30;;;;;;;5.83;67.39;100198.84;5013277;28;20444;-74
2022/02/14 03:28:50;;;;;;;0.40;0.30;;;;;;;5.88;66.08;100182.66;5013377;28;20447;-73
2022/02/14 03:31:18;;;;;;;0.40;0.20;;;;;;;5.77;67.41;100198.06;5013466;28;20448;-73
2022/02/14 03:33:46;;;;;;;0.40;0.30;;;;;;;5.79;67.76;100193.22;5013276;28;20464;-74
2022/02/14 03:36:14;;;;;;;0.40;0.30;;;;;;;5.76;67.10;100174.97;5013373;28;20441;-74
2022/02/14 03:38:42;;;;;;;0.40;0.30;;;;;;;5.76;66.25;100183.03;5013348;28;20942;-74
2022/02/14 03:41:08;;;;;;;0.40;0.30;;;;;;;5.76;67.04;100169.59;5013366;28;20472;-74
2022/02/14 03:43:35;;;;;;;0.40;0.30;;;;;;;5.71;67.61;100174.19;5013131;28;20463;-74
2022/02/14 03:46:01;;;;;;;0.40;0.30;;;;;;;5.72;66.21;100160.50;5013315;28;20451;-74
2022/02/14 03:48:28;;;;;;;0.40;0.27;;;;;;;5.65;66.88;100162.66;5012948;28;20444;-74
2022/02/14 03:50:56;;;;;;;0.40;0.20;;;;;;;5.63;67.14;100164.84;5013224;28;20448;-74
2022/02/14 03:53:23;;;;;;;0.40;0.30;;;;;;;5.65;67.21;100151.94;5013167;28;20529;-74
2022/02/14 03:55:50;;;;;;;0.40;0.20;;;;;;;5.65;66.85;100143.88;5013179;28;20441;-74
2022/02/14 03:58:17;;;;;;;3.60;1.30;;;;;;;5.55;66.68;100142.06;5013207;28;20450;-72
2022/02/14 04:00:44;;;;;;;0.40;0.30;;;;;;;5.55;66.61;100152.00;5012879;28;20463;-73
2022/02/14 04:03:10;;;;;;;0.40;0.27;;;;;;;5.55;65.56;100155.50;4993474;28;20845;-75
2022/02/14 04:05:36;;;;;;;1.53;1.43;;;;;;;5.53;65.94;100149.59;4993496;28;20492;-74
2022/02/14 04:08:05;;;;;;;0.40;0.30;;;;;;;5.53;65.50;100138.84;4993497;28;20499;-75
2022/02/14 04:10:32;;;;;;;0.40;0.30;;;;;;;5.51;65.61;100142.88;5009441;28;20873;-75
2022/02/14 04:12:58;;;;;;;0.40;0.30;;;;;;;5.49;64.79;100139.66;5012902;28;20471;-75
2022/02/14 04:15:24;;;;;;;0.40;0.30;;;;;;;5.51;66.02;100135.63;5016044;28;20467;-74
2022/02/14 04:17:51;;;;;;;0.40;0.20;;;;;;;5.52;65.44;100136.44;5016665;28;20451;-74
2022/02/14 04:20:17;;;;;;;0.40;0.30;;;;;;;5.44;65.77;100134.31;5016565;28;20451;-74
2022/02/14 04:22:44;;;;;;;0.40;0.20;;;;;;;5.41;66.26;100129.53;5016571;28;20462;-75
2022/02/14 04:25:13;;;;;;;0.40;0.20;;;;;;;5.39;65.67;100135.16;5016506;28;20483;-75
2022/02/14 04:27:42;;;;;;;0.40;0.20;;;;;;;5.39;66.09;100120.94;5016258;28;20443;-75
2022/02/14 04:30:10;;;;;;;0.40;0.30;;;;;;;5.40;65.55;100123.34;5016480;28;20470;-75
2022/02/14 04:32:37;;;;;;;0.40;0.30;;;;;;;5.45;65.80;100127.91;5016295;28;20834;-77
2022/02/14 04:35:04;;;;;;;0.40;0.20;;;;;;;5.38;65.54;100124.72;5016371;28;20440;-77
2022/02/14 04:37:31;;;;;;;0.40;0.20;;;;;;;5.40;64.66;100134.09;5016602;28;20451;-76
2022/02/14 04:39:58;;;;;;;0.40;0.27;;;;;;;5.43;64.60;100128.16;5016802;28;20432;-76
2022/02/14 04:42:26;;;;;;;0.40;0.30;;;;;;;5.44;64.29;100134.31;5016126;28;20467;-77
2022/02/14 04:44:53;;;;;;;0.40;0.30;;;;;;;5.39;64.57;100120.94;5016257;28;20491;-77
2022/02/14 04:47:20;;;;;;;0.40;0.20;;;;;;;5.42;63.61;100120.38;5016214;28;20448;-77
2022/02/14 04:49:46;;;;;;;0.40;0.30;;;;;;;5.43;63.84;100116.63;5016140;28;20444;-77
2022/02/14 04:52:12;;;;;;;0.40;0.30;;;;;;;5.31;65.74;100112.41;5016061;28;20467;-77
2022/02/14 04:54:39;;;;;;;0.40;0.30;;;;;;;5.35;64.89;100117.19;5016105;28;20451;-77
2022/02/14 04:57:05;;;;;;;0.40;0.30;;;;;;;5.37;64.63;100123.09;5015998;28;20825;-76
2022/02/14 04:59:33;;;;;;;0.40;0.30;;;;;;;5.37;63.93;100113.16;5016007;28;20440;-77
2022/02/14 05:02:00;;;;;;;0.40;0.30;;;;;;;5.39;64.56;100111.00;5016260;28;20986;-77
2022/02/14 05:04:28;;;;;;;0.40;0.30;;;;;;;5.34;64.48;100112.91;5016208;28;20505;-77
2022/02/14 05:06:55;;;;;;;0.40;0.30;;;;;;;5.37;63.63;100113.16;5016030;28;20448;-77
2022/02/14 05:09:21;;;;;;;0.40;0.20;;;;;;;5.37;64.30;100104.31;5016182;28;20451;-77
2022/02/14 05:11:48;;;;;;;0.40;0.30;;;;;;;5.29;65.12;100109.19;5015958;28;20499;-77
2022/02/14 05:14:15;;;;;;;0.40;0.30;;;;;;;5.26;64.24;100112.41;5016635;28;20467;-78
2022/02/14 05:16:42;;;;;;;0.40;0.30;;;;;;;5.18;65.14;100109.50;5015446;28;20992;-77
2022/02/14 05:19:09;;;;;;;0.40;0.20;;;;;;;5.20;64.98;100115.41;5015772;28;20444;-75
2022/02/14 05:21:35;;;;;;;0.40;0.20;;;;;;;5.24;65.18;100106.53;5015561;28;20531;-76
2022/02/14 05:24:02;;;;;;;0.40;0.30;;;;;;;5.27;64.01;100100.59;5015458;28;20453;-75
2022/02/14 05:26:29;;;;;;;0.40;0.20;;;;;;;5.29;64.42;100105.69;5014260;28;20502;-75
2022/02/14 05:28:55;;;;;;;0.40;0.30;;;;;;;5.24;64.70;100101.16;5015026;28;20929;-74
2022/02/14 05:31:22;;;;;;;0.40;0.30;;;;;;;5.26;64.68;100095.50;5015411;28;20444;-79
2022/02/14 05:33:51;;;;;;;0.40;0.27;;;;;;;5.29;64.03;100103.00;5015487;28;20444;-76
2022/02/14 05:36:18;;;;;;;0.40;0.30;;;;;;;5.22;64.41;100097.97;5014918;28;20839;-77
2022/02/14 05:38:44;;;;;;;0.40;0.30;;;;;;;5.23;64.10;100102.25;5015314;28;20868;-77
2022/02/14 05:41:11;;;;;;;3.03;2.83;;;;;;;5.24;64.55;100103.84;5015801;28;20444;-77
2022/02/14 05:43:37;;;;;;;0.40;0.30;;;;;;;5.17;64.65;100097.16;5015310;28;20463;-77
2022/02/14 05:46:04;;;;;;;0.40;0.30;;;;;;;5.16;64.86;100098.25;5014908;28;20959;-78
2022/02/14 05:48:30;;;;;;;0.40;0.20;;;;;;;5.18;65.61;100101.44;5015347;28;20436;-77
2022/02/14 05:50:58;;;;;;;0.40;0.30;;;;;;;5.23;63.76;100088.81;5015226;28;20448;-77
2022/02/14 05:53:24;;;;;;;0.40;0.30;;;;;;;5.26;63.80;100101.66;5015383;28;20468;-72
2022/02/14 05:55:51;;;;;;;0.40;0.30;;;;;;;5.22;64.45;100094.44;5014928;28;20518;-75
2022/02/14 05:58:17;;;;;;;0.40;0.30;;;;;;;5.25;64.34;100092.00;5014481;28;20862;-74
2022/02/14 06:00:43;;;;;;;0.40;0.20;;;;;;;5.29;64.40;100098.44;5014707;28;20451;-72
2022/02/14 06:03:10;;;;;;;0.40;0.30;;;;;;;5.31;64.41;100096.28;5014615;28;20470;-75
2022/02/14 06:05:36;;;;;;;0.40;0.30;;;;;;;5.27;64.12;100099.81;5014642;28;20491;-75
2022/02/14 06:08:05;;;;;;;0.40;0.30;;;;;;;5.30;63.86;100113.47;5017338;28;20934;-79
2022/02/14 06:10:31;;;;;;;0.40;0.20;;;;;;;5.32;63.12;100105.16;5015623;28;20531;-73
2022/02/14 06:12:58;;;;;;;0.40;0.20;;;;;;;5.28;63.66;100099.53;5015915;28;20521;-77
2022/02/14 06:15:25;;;;;;;0.87;0.87;;;;;;;5.28;63.98;100098.72;5015870;28;20444;-77
2022/02/14 06:17:52;;;;;;;0.40;0.20;;;;;;;5.27;64.82;100099.81;5016159;28;20447;-77
2022/02/14 06:20:19;;;;;;;0.40;0.30;;;;;;;5.20;64.46;100112.72;5015746;28;20444;-77
2022/02/14 06:22:45;;;;;;;0.83;0.83;;;;;;;5.14;64.81;100103.91;5015738;28;20456;-78
2022/02/14 06:25:13;;;;;;;0.40;0.20;;;;;;;5.19;63.54;100103.88;5014978;28;20488;-77
2022/02/14 06:27:39;;;;;;;0.40;0.30;;;;;;;5.18;63.81;100104.97;5015984;28;20455;-77
2022/02/14 06:30:07;;;;;;;0.40;0.20;;;;;;;5.11;64.50;100092.91;5015184;28;20851;-77
2022/02/14 06:32:34;;;;;;;0.40;0.30;;;;;;;5.10;64.30;100107.41;5015366;28;20479;-77
2022/02/14 06:35:02;;;;;;;0.40;0.27;;;;;;;5.18;64.45;100096.91;5015394;28;20539;-77
2022/02/14 06:37:29;;;;;;;0.40;0.30;;;;;;;5.23;63.73;100090.69;5014911;28;20459;-77
2022/02/14 06:39:56;;;;;;;0.40;0.30;;;;;;;5.25;63.26;100094.69;5015304;28;20452;-77
2022/02/14 06:42:24;;;;;;;0.40;0.30;;;;;;;5.24;63.42;100092.28;5015126;28;20553;-77
2022/02/14 06:44:50;;;;;;;0.40;0.20;;;;;;;5.25;63.03;100085.84;5014916;28;20495;-77
2022/02/14 06:47:17;;;;;;;0.40;0.30;;;;;;;5.25;63.52;100093.91;5015355;28;20459;-77
2022/02/14 06:49:43;;;;;;;0.50;0.47;;;;;;;5.32;63.76;100089.03;5015067;28;20448;-77
2022/02/14 06:52:09;;;;;;;0.40;0.30;;;;;;;5.28;63.22;100083.41;5015361;28;20474;-77
2022/02/14 06:54:36;;;;;;;0.40;0.20;;;;;;;5.36;62.69;100090.09;5014947;28;20444;-77
2022/02/14 06:57:03;;;;;;;0.40;0.20;;;;;;;5.37;63.79;100080.16;5014989;28;20455;-77
2022/02/14 06:59:30;;;;;;;0.40;0.27;;;;;;;5.40;62.54;100090.31;5014469;28;20499;-77
2022/02/14 07:01:57;;;;;;;0.40;0.30;;;;;;;5.45;62.44;100092.97;5014660;28;20476;-77
2022/02/14 07:04:23;;;;;;;0.40;0.20;;;;;;;5.44;62.58;100086.78;5014677;28;20452;-77
2022/02/14 07:06:50;;;;;;;0.40;0.30;;;;;;;5.47;62.07;100085.44;5014274;28;20534;-77
2022/02/14 07:09:16;;;;;;;0.40;0.30;;;;;;;5.51;62.79;100073.06;5013749;28;20440;-77
2022/02/14 07:11:44;;;;;;;0.40;0.20;;;;;;;5.51;62.59;100086.47;5013713;28;20468;-77
2022/02/14 07:14:11;;;;;;;0.40;0.30;;;;;;;5.55;61.86;100077.59;5013836;28;20795;-77
2022/02/14 07:16:39;;;;;;;0.40;0.30;;;;;;;5.63;61.60;100089.63;5014126;28;20466;-77
2022/02/14 07:19:06;;;;;;;0.40;0.30;;;;;;;5.63;62.78;100081.56;5013406;28;20796;-77
2022/02/14 07:21:32;;;;;;;0.40;0.20;;;;;;;5.64;62.37;100080.47;5013724;28;20452;-77
2022/02/14 07:23:58;;;;;;;0.40;0.30;;;;;;;5.71;61.41;100080.16;5014232;28;20506;-77
2022/02/14 07:26:25;;;;;;;0.40;0.30;;;;;;;5.75;61.86;100081.19;5013706;28;20996;-77
2022/02/14 07:28:51;;;;;;;0.40;0.20;;;;;;;5.75;61.74;100081.19;5013809;28;20452;-77
2022/02/14 07:31:18;;;;;;;0.50;0.30;;;;;;;5.75;61.45;100071.25;5014169;28;20440;-77
2022/02/14 07:33:45;;;;;;;2.43;2.30;;;;;;;5.73;62.05;100072.63;5014322;28;20463;-77
2022/02/14 07:36:12;;;;;;;0.40;0.30;;;;;;;5.77;61.58;100066.41;5013218;28;20440;-77
2022/02/14 07:38:38;;;;;;;0.40;0.20;;;;;;;5.74;62.24;100075.00;5013342;28;20453;-77
2022/02/14 07:41:05;;;;;;;0.40;0.20;;;;;;;5.78;62.34;100076.06;5013395;28;20448;-77
2022/02/14 07:43:32;;;;;;;0.40;0.30;;;;;;;5.87;62.00;100068.19;5013307;28;20464;-77
2022/02/14 07:45:59;;;;;;;0.40;0.30;;;;;;;5.90;61.87;100061.47;5013267;28;20480;-77
2022/02/14 07:48:25;;;;;;;0.40;0.20;;;;;;;5.92;61.20;100067.38;5013735;28;20436;-77
2022/02/14 07:50:53;;;;;;;0.40;0.27;;;;;;;5.96;60.80;100060.34;5016985;28;20452;-77
2022/02/14 07:53:20;;;;;;;0.40;0.30;;;;;;;6.00;60.76;100064.06;5018468;28;20486;-77
2022/02/14 07:55:46;;;;;;;0.40;0.30;;;;;;;6.00;61.41;100072.16;5017140;28;20444;-77
2022/02/14 07:58:13;;;;;;;0.40;0.30;;;;;;;6.04;61.31;100073.19;5019223;28;20455;-75
2022/02/14 08:00:41;;;;;;;0.40;0.20;;;;;;;6.07;61.43;100064.56;5017824;28;20448;-76
2022/02/14 08:03:07;;;;;;;0.40;0.30;;;;;;;6.10;61.37;100063.19;5016921;28;20511;-73
2022/02/14 08:05:34;;;;;;;0.40;0.30;;;;;;;6.20;60.77;100060.41;5016998;28;20491;-77
2022/02/14 08:08:01;;;;;;;0.40;0.30;;;;;;;6.30;59.15;100061.09;5016933;28;20443;-74
2022/02/14 08:10:28;;;;;;;0.40;0.30;;;;;;;6.37;59.64;100065.31;5016809;28;20443;-75
2022/02/14 08:12:54;;;;;;;0.40;0.30;;;;;;;6.43;58.50;100061.50;5016703;28;20468;-74
2022/02/14 08:15:21;;;;;;;0.40;0.23;;;;;;;6.45;59.17;100062.00;5016493;28;20456;-75
2022/02/14 08:17:48;;;;;;;0.40;0.30;;;;;;;6.48;59.52;100059.53;5016423;28;21000;-75
2022/02/14 08:20:14;;;;;;;17.63;8.77;;;;;;;6.55;59.15;100060.00;5016609;28;20870;-75
2022/02/14 08:22:41;;;;;;;0.40;0.30;;;;;;;6.64;58.89;100056.66;5016565;28;20455;-77
2022/02/14 08:25:09;;;;;;;0.40;0.30;;;;;;;6.71;58.77;100059.81;5016215;28;20981;-76
2022/02/14 08:27:36;;;;;;;0.40;0.30;;;;;;;6.77;58.13;100050.56;5016531;28;20452;-76
2022/02/14 08:30:03;;;;;;;0.40;0.30;;;;;;;6.81;58.67;100049.72;5016493;28;20451;-73
2022/02/14 08:32:30;;;;;;;0.40;0.30;;;;;;;6.87;58.83;100052.34;5016429;28;20468;-71
2022/02/14 08:34:56;;;;;;;0.40;0.20;;;;;;;6.97;56.98;100057.59;5016455;28;20440;-76
2022/02/14 08:37:23;;;;;;;0.43;0.30;;;;;;;7.06;57.05;100053.16;5016395;28;20491;-76
2022/02/14 08:39:49;;;;;;;0.40;0.20;;;;;;;7.14;57.40;100046.34;5016014;28;20964;-75
2022/02/14 08:42:17;;;;;;;14.20;9.10;;;;;;;7.15;57.51;100051.41;5016140;28;20521;-75
2022/02/14 08:44:43;;;;;;;0.40;0.30;;;;;;;7.23;56.48;100040.00;5015876;28;20442;-75
2022/02/14 08:47:10;;;;;;;0.40;0.20;;;;;;;7.34;56.03;100044.13;5016015;28;20480;-75
2022/02/14 08:49:37;;;;;;;2.67;2.57;;;;;;;7.40;56.49;100044.88;5016088;28;20455;-75
2022/02/14 08:52:04;;;;;;;1.03;1.03;;;;;;;7.47;56.19;100049.88;5015997;28;20510;-75
2022/02/14 08:54:30;;;;;;;0.40;0.30;;;;;;;7.51;56.17;100042.81;5015980;28;20455;-76
2022/02/14 08:56:57;;;;;;;0.40;0.30;;;;;;;7.49;56.29;100036.91;5015977;28;20444;-75
2022/02/14 08:59:25;;;;;;;0.40;0.30;;;;;;;7.52;56.23;100041.69;5015650;28;20444;-76
2022/02/14 09:01:52;;;;;;;0.40;0.30;;;;;;;7.61;55.33;100053.41;5015558;28;20471;-75
2022/02/14 09:04:19;;;;;;;0.40;0.30;;;;;;;7.69;55.34;100047.34;5015861;28;20448;-75
2022/02/14 09:06:46;;;;;;;0.50;0.40;;;;;;;7.78;55.20;100036.69;5015740;28;20851;-76
2022/02/14 09:09:13;;;;;;;1.13;1.13;;;;;;;7.86;54.97;100046.00;5015776;28;20448;-75
2022/02/14 09:11:41;;;;;;;2.77;2.67;;;;;;;7.90;55.07;100034.34;5015709;28;20483;-75
2022/02/14 09:14:08;;;;;;;0.40;0.20;;;;;;;7.91;55.16;100037.81;5015683;28;20487;-75
2022/02/14 09:16:35;;;;;;;0.40;0.30;;;;;;;7.93;55.45;100046.44;5015627;28;20451;-75
2022/02/14 09:19:02;;;;;;;0.40;0.30;;;;;;;8.01;54.85;100035.78;5015649;28;20780;-76
2022/02/14 09:21:28;;;;;;;0.40;0.30;;;;;;;8.05;54.45;100034.06;5015427;28;20455;-76
2022/02/14 09:23:55;;;;;;;0.50;0.50;;;;;;;8.15;54.04;100027.69;5015543;28;20812;-76
2022/02/14 09:26:21;;;;;;;0.40;0.30;;;;;;;8.13;54.94;100024.47;5015381;28;20576;-75
2022/02/14 09:28:48;;;;;;;4.00;3.70;;;;;;;8.17;54.86;100025.47;5015419;28;20447;-76
2022/02/14 09:31:16;;;;;;;0.40;0.30;;;;;;;8.30;53.58;100016.59;5015357;28;20546;-75
2022/02/14 09:33:43;;;;;;;0.40;0.20;;;;;;;8.40;53.93;100012.94;5014940;28;21044;-75
2022/02/14 09:36:11;;;;;;;0.40;0.30;;;;;;;8.45;52.85;100012.03;5015476;28;20437;-76
2022/02/14 09:38:38;;;;;;;0.40;0.30;;;;;;;8.47;52.88;100004.44;5015241;28;20448;-75
2022/02/14 09:41:05;;;;;;;0.40;0.30;;;;;;;8.56;52.17;100010.72;5015548;28;20447;-78
2022/02/14 09:43:34;;;;;;;0.40;0.30;;;;;;;8.61;52.76;100002.53;5015227;28;20554;-73
2022/02/14 09:46:01;;;;;;;0.40;0.30;;;;;;;8.74;51.66;100015.19;5015003;28;20851;-75
2022/02/14 09:48:32;;;;;;;0.40;0.30;;;;;;;8.74;52.90;100012.50;5014720;28;20444;-74
2022/02/14 09:51:00;;;;;;;0.40;0.30;;;;;;;8.82;52.11;100009.09;5015037;28;20417;-75
2022/02/14 09:53:29;;;;;;;0.40;0.30;;;;;;;8.88;52.69;100006.28;5014814;28;20468;-75
2022/02/14 09:55:55;;;;;;;0.40;0.30;;;;;;;8.94;52.59;100008.56;5014580;28;20451;-75
2022/02/14 09:58:22;;;;;;;0.40;0.30;;;;;;;8.98;52.46;100003.34;5014535;28;20440;-76
2022/02/14 10:00:49;;;;;;;0.40;0.30;;;;;;;9.06;51.87;100014.22;5014857;28;20452;-75
2022/02/14 10:03:18;;;;;;;0.40;0.40;;;;;;;9.12;51.68;100017.63;5014941;28;20878;-77
2022/02/14 10:05:46;;;;;;;0.40;0.30;;;;;;;9.16;51.02;100018.59;5014854;28;20456;-77
2022/02/14 10:08:25;;;;;;;0.40;0.30;;;;;;;9.29;51.52;100016.94;5014886;28;20447;-77
2022/02/14 10:10:55;;;;;;;0.40;0.30;;;;;;;9.30;51.23;100019.34;5014459;28;20431;-77
2022/02/14 10:13:34;;;;;;;0.40;0.30;;;;;;;9.40;50.84;100012.91;5014355;28;20990;-78
2022/02/14 10:16:01;;;;;;;0.40;0.30;;;;;;;9.45;51.29;100006.56;5015393;28;20513;-77
2022/02/14 10:18:29;;;;;;;0.40;0.30;;;;;;;9.49;50.68;100010.28;5017399;28;20436;-77
2022/02/14 10:21:22;;;;;;;0.40;0.30;;;;;;;9.48;51.44;100006.78;5014901;28;20512;-77
2022/02/14 10:24:01;;;;;;;0.40;0.30;;;;;;;9.50;51.59;100014.56;5014815;28;20451;-77
2022/02/14 10:26:30;;;;;;;0.40;0.30;;;;;;;9.59;51.15;100010.00;5015293;28;20468;-77
2022/02/14 10:28:56;;;;;;;0.40;0.30;;;;;;;9.67;50.01;100011.97;5014944;28;20447;-78
2022/02/14 10:31:23;;;;;;;0.40;0.30;;;;;;;9.67;51.19;100000.34;5014223;28;20456;-77
2022/02/14 10:33:52;;;;;;;0.40;0.30;;;;;;;9.70;52.11;100003.25;5014261;28;20463;-77
2022/02/14 10:36:31;;;;;;;0.40;0.30;;;;;;;9.83;50.98;100010.47;5017446;28;20444;-77
2022/02/14 10:38:58;;;;;;;0.40;0.30;;;;;;;9.85;50.75;100010.97;5016336;28;20451;-77
2022/02/14 10:41:28;;;;;;;0.40;0.30;;;;;;;9.96;50.71;100007.97;5014061;28;20444;-77
2022/02/14 10:44:04;;;;;;;0.40;0.30;;;;;;;10.01;51.23;100016.78;5014270;28;20482;-77
2022/02/14 10:46:31;;;;;;;0.40;0.30;;;;;;;10.14;50.00;100015.09;5014444;28;20468;-77
2022/02/14 10:48:58;;;;;;;0.40;0.30;;;;;;;10.21;50.30;100018.13;5014351;28;20964;-78
2022/02/14 10:51:24;;;;;;;0.40;0.30;;;;;;;10.27;50.30;100026.94;5014015;28;20452;-77
2022/02/14 10:53:51;;;;;;;0.40;0.30;;;;;;;10.34;51.06;100021.88;5014399;28;20498;-77
2022/02/14 10:56:19;;;;;;;0.40;0.30;;;;;;;10.41;50.97;100021.44;5014376;28;20471;-77
2022/02/14 10:58:47;;;;;;;3.17;2.97;;;;;;;10.54;49.57;100020.53;5014175;28;20448;-77
2022/02/14 11:01:15;;;;;;;0.40;0.30;;;;;;;10.67;49.68;100038.56;5014515;28;20450;-77
2022/02/14 11:03:42;;;;;;;0.40;0.30;;;;;;;10.71;50.01;100027.88;5013938;28;20475;-78
2022/02/14 11:06:09;;;;;;;0.40;0.20;;;;;;;10.83;50.10;100018.00;5014173;28;20488;-77
2022/02/14 11:08:37;;;;;;;0.40;0.30;;;;;;;11.02;49.00;100016.91;5014070;28;20450;-77
2022/02/14 11:11:05;;;;;;;0.40;0.30;;;;;;;11.09;49.94;100020.75;5014391;28;20452;-78
2022/02/14 11:13:32;;;;;;;0.40;0.30;;;;;;;11.28;48.43;100022.34;5013813;28;21001;-77
2022/02/14 11:16:02;;;;;;;0.40;0.30;;;;;;;11.40;48.76;100019.00;5013682;28;20462;-78
2022/02/14 11:18:32;;;;;;;0.40;0.30;;;;;;;11.40;49.03;100014.38;5013749;28;20934;-77
2022/02/14 11:21:00;;;;;;;2.60;2.50;;;;;;;11.52;48.48;100013.72;5014113;28;20444;-78
2022/02/14 11:23:30;;;;;;;0.40;0.30;;;;;;;11.64;49.09;100011.13;5014033;28;20499;-77
2022/02/14 11:26:05;;;;;;;0.40;0.30;;;;;;;11.72;48.84;100009.53;5013304;28;20502;-77
2022/02/14 11:28:37;;;;;;;0.40;0.30;;;;;;;11.92;49.07;100006.19;4994532;28;20495;-78
2022/02/14 11:31:10;;;;;;;0.40;0.30;;;;;;;11.90;48.49;99994.84;5003723;28;20956;-77